Time;durP1;ratioP1;P1;durP2;ratioP2;P2;SDS_P1;SDS_P2;PMS_P1;PMS_P2;Temp;Humidity;BMP_temperature;BMP_pressure;BME280_temperature;BME280_humidity;BME280_pressure;Samples;Min_cycle;Max_cycle;Signal;HPM_P1;HPM_P2
2022/09/15 00:00:54;;;;;;;2.33;0.93;;;16.10;99.90;;;;;;5028432;28;20865;-72
2022/09/15 00:03:21;;;;;;;2.72;1.00;;;16.10;99.90;;;;;;5027510;28;20041;-72
2022/09/15 00:05:47;;;;;;;3.63;2.03;;;16.00;99.90;;;;;;5027600;28;20037;-71
2022/09/15 00:08:13;;;;;;;3.30;1.00;;;16.10;99.90;;;;;;5027920;28;20040;-69
2022/09/15 00:10:52;;;;;;;5.80;1.15;;;16.10;99.90;;;;;;5028892;28;20037;-71
2022/09/15 00:13:19;;;;;;;3.70;0.93;;;16.00;99.90;;;;;;5033070;28;20044;-72
2022/09/15 00:15:45;;;;;;;2.10;0.95;;;16.00;99.90;;;;;;5034767;28;20606;-71
2022/09/15 00:18:11;;;;;;;2.42;0.80;;;16.00;99.90;;;;;;5028340;28;20029;-72
2022/09/15 00:20:44;;;;;;;3.15;1.02;;;16.00;99.90;;;;;;5023899;28;20394;-70
2022/09/15 00:23:11;;;;;;;6.60;0.70;;;16.00;99.90;;;;;;5023887;28;20029;-72
2022/09/15 00:25:52;;;;;;;5.40;0.90;;;15.90;99.90;;;;;;5023585;28;20521;-70
2022/09/15 00:28:20;;;;;;;1.83;0.60;;;15.90;99.90;;;;;;5025510;28;20029;-70
2022/09/15 00:30:51;;;;;;;3.60;1.00;;;15.80;99.90;;;;;;5027430;28;20029;-72
2022/09/15 00:33:18;;;;;;;9.00;1.10;;;15.80;99.90;;;;;;5027338;28;20395;-72
2022/09/15 00:35:45;;;;;;;4.63;1.17;;;15.80;99.90;;;;;;5027013;28;20116;-71
2022/09/15 00:38:12;;;;;;;3.53;1.20;;;15.70;99.90;;;;;;5027357;28;20127;-72
2022/09/15 00:40:53;;;;;;;4.05;1.40;;;15.60;99.90;;;;;;5032566;28;20101;-71
2022/09/15 00:43:40;;;;;;;2.42;1.40;;;15.60;99.90;;;;;;5030789;28;20044;-72
2022/09/15 00:46:05;;;;;;;5.45;1.35;;;15.50;99.90;;;;;;5028120;28;20117;-71
2022/09/15 00:48:32;;;;;;;9.90;1.50;;;15.50;99.90;;;;;;5029062;28;20060;-71
2022/09/15 00:51:01;;;;;;;2.05;1.00;;;15.40;99.90;;;;;;5027320;28;20375;-72
2022/09/15 00:53:28;;;;;;;6.70;1.88;;;15.40;99.90;;;;;;5026372;28;20486;-71
2022/09/15 00:55:55;;;;;;;2.08;1.08;;;15.30;99.90;;;;;;5027093;28;20049;-72
2022/09/15 00:58:33;;;;;;;6.05;1.65;;;15.20;99.90;;;;;;5027032;28;20389;-70
2022/09/15 01:01:01;;;;;;;3.90;1.48;;;15.20;99.90;;;;;;5027290;28;20160;-73
2022/09/15 01:03:30;;;;;;;4.72;1.27;;;15.20;99.90;;;;;;5025418;28;20076;-70
2022/09/15 01:06:01;;;;;;;7.57;2.20;;;15.10;99.90;;;;;;5025479;28;20051;-71
2022/09/15 01:08:29;;;;;;;4.45;1.50;;;15.10;99.90;;;;;;5026722;28;20038;-72
2022/09/15 01:10:55;;;;;;;1.40;0.80;;;15.10;99.90;;;;;;5027215;28;20046;-71
2022/09/15 01:13:21;;;;;;;3.08;1.23;;;15.10;99.90;;;;;;5028999;28;20099;-72
2022/09/15 01:16:16;;;;;;;4.05;1.30;;;15.20;99.90;;;;;;5029743;28;20099;-72
2022/09/15 01:19:00;;;;;;;3.17;1.15;;;15.20;99.90;;;;;;5027154;28;20042;-72
2022/09/15 01:21:44;;;;;;;1.90;0.95;;;15.30;99.90;;;;;;5026318;28;20068;-71
2022/09/15 01:24:43;;;;;;;2.03;0.75;;;15.30;99.90;;;;;;5023117;28;20068;-72
2022/09/15 01:27:31;;;;;;;3.93;0.83;;;15.40;99.90;;;;;;5030209;28;20045;-71
2022/09/15 01:30:19;;;;;;;3.20;1.13;;;15.40;99.90;;;;;;5028714;28;20037;-72
2022/09/15 01:33:03;;;;;;;3.60;1.13;;;15.50;99.90;;;;;;5010660;28;20046;-69
2022/09/15 01:35:49;;;;;;;1.48;0.90;;;15.50;99.90;;;;;;5021673;28;20037;-71
2022/09/15 01:38:27;;;;;;;2.08;1.00;;;15.50;99.90;;;;;;5023805;28;20033;-69
2022/09/15 01:40:58;;;;;;;3.92;1.17;;;15.60;99.90;;;;;;5024504;28;20358;-71
2022/09/15 01:43:26;;;;;;;3.80;0.75;;;15.60;99.90;;;;;;5023848;28;20041;-71
2022/09/15 01:45:52;;;;;;;3.38;0.70;;;15.50;99.90;;;;;;5017957;28;20037;-72
2022/09/15 01:48:24;;;;;;;3.53;1.00;;;15.60;99.90;;;;;;5021970;28;20052;-70
2022/09/15 01:50:54;;;;;;;2.42;0.80;;;15.60;99.90;;;;;;5025831;28;20034;-71
2022/09/15 01:53:22;;;;;;;15.40;1.55;;;15.60;99.90;;;;;;5025696;28;20431;-72
2022/09/15 01:56:09;;;;;;;2.53;0.80;;;15.60;99.90;;;;;;5025515;28;20040;-71
2022/09/15 01:58:37;;;;;;;2.47;0.93;;;15.60;99.90;;;;;;5022280;28;20071;-71
2022/09/15 02:01:26;;;;;;;3.75;1.70;;;15.60;99.90;;;;;;5022292;28;20124;-72
2022/09/15 02:04:09;;;;;;;3.95;0.88;;;15.60;99.90;;;;;;5014394;28;20037;-72
2022/09/15 02:06:52;;;;;;;3.38;1.05;;;15.60;99.90;;;;;;5021968;28;20038;-72
2022/09/15 02:09:23;;;;;;;3.30;0.90;;;15.70;99.90;;;;;;5023971;28;20128;-72
2022/09/15 02:12:06;;;;;;;2.08;0.88;;;15.60;99.90;;;;;;5026334;28;20124;-72
2022/09/15 02:15:10;;;;;;;1.55;0.75;;;15.60;99.90;;;;;;5021386;28;20037;-69
2022/09/15 02:17:44;;;;;;;1.50;0.80;;;15.60;99.90;;;;;;5029302;28;20057;-71
2022/09/15 02:20:16;;;;;;;3.80;0.90;;;15.60;99.90;;;;;;5035665;28;20025;-70
2022/09/15 02:22:49;;;;;;;2.47;1.02;;;15.60;99.90;;;;;;5030107;28;20124;-72
2022/09/15 02:25:27;;;;;;;5.18;1.83;;;15.60;99.90;;;;;;5025520;28;20087;-70
2022/09/15 02:27:57;;;;;;;4.30;1.13;;;15.60;99.90;;;;;;5025898;28;20444;-72
2022/09/15 02:30:23;;;;;;;2.33;1.10;;;15.60;99.90;;;;;;5025634;28;20449;-71
2022/09/15 02:33:01;;;;;;;2.00;0.90;;;15.60;99.90;;;;;;5024980;28;20040;-72
2022/09/15 02:35:29;;;;;;;4.05;0.85;;;15.60;99.90;;;;;;5025604;28;20120;-72
2022/09/15 02:37:56;;;;;;;3.05;1.23;;;15.60;99.90;;;;;;5025372;28;20030;-71
2022/09/15 02:40:22;;;;;;;3.95;1.25;;;15.60;99.90;;;;;;5027183;28;20106;-72
2022/09/15 02:42:56;;;;;;;2.75;0.90;;;15.60;99.90;;;;;;5028772;28;20043;-72
2022/09/15 02:45:24;;;;;;;4.18;1.05;;;15.50;99.90;;;;;;5026615;28;20466;-72
2022/09/15 02:47:49;;;;;;;5.72;1.30;;;15.50;99.90;;;;;;5026472;28;20041;-72
2022/09/15 02:50:16;;;;;;;4.15;1.92;;;15.50;99.90;;;;;;5025943;28;20747;-69
2022/09/15 02:52:42;;;;;;;4.45;0.60;;;15.50;99.90;;;;;;5030052;28;20034;-71
2022/09/15 02:55:09;;;;;;;3.50;1.00;;;15.50;99.90;;;;;;5029854;28;20045;-72
2022/09/15 02:57:35;;;;;;;3.83;1.17;;;15.50;99.90;;;;;;5029909;28;20033;-72
2022/09/15 03:00:12;;;;;;;4.40;0.85;;;15.50;99.90;;;;;;5028101;28;20044;-72
2022/09/15 03:02:38;;;;;;;2.42;0.95;;;15.50;99.90;;;;;;5021798;28;20180;-72
2022/09/15 03:05:05;;;;;;;1.90;0.80;;;15.60;99.90;;;;;;5024655;28;20037;-69
2022/09/15 03:07:31;;;;;;;2.20;1.00;;;15.50;99.90;;;;;;5025231;28;20041;-71
2022/09/15 03:09:57;;;;;;;1.95;0.80;;;15.50;99.90;;;;;;5024878;28;20113;-71
2022/09/15 03:12:23;;;;;;;4.03;0.88;;;15.50;99.90;;;;;;5029306;28;20872;-71
2022/09/15 03:14:50;;;;;;;1.35;0.77;;;15.50;99.90;;;;;;5028425;28;20452;-71
2022/09/15 03:17:16;;;;;;;1.20;0.52;;;15.50;99.90;;;;;;5028495;28;20063;-70
2022/09/15 03:19:42;;;;;;;5.32;0.85;;;15.50;99.90;;;;;;5027095;28;20417;-71
2022/09/15 03:22:09;;;;;;;1.50;0.70;;;15.50;99.90;;;;;;5027397;28;20031;-71
2022/09/15 03:24:35;;;;;;;2.97;0.85;;;15.50;99.90;;;;;;5027901;28;20029;-70
2022/09/15 03:27:01;;;;;;;2.60;0.80;;;15.60;99.90;;;;;;5028624;28;20404;-72
2022/09/15 03:29:26;;;;;;;4.10;0.77;;;15.60;99.90;;;;;;5027938;28;20029;-71
2022/09/15 03:31:52;;;;;;;3.75;0.98;;;15.50;99.90;;;;;;5027001;28;20040;-70
2022/09/15 03:34:18;;;;;;;3.13;1.33;;;15.60;99.90;;;;;;5027284;28;20025;-68
2022/09/15 03:36:44;;;;;;;0.90;0.50;;;15.50;99.90;;;;;;5025935;28;20053;-71
2022/09/15 03:39:11;;;;;;;3.05;0.70;;;15.60;99.90;;;;;;5028189;28;20560;-72
2022/09/15 03:41:36;;;;;;;2.60;0.80;;;15.60;99.90;;;;;;5027753;28;20029;-72
2022/09/15 03:44:02;;;;;;;3.72;1.10;;;15.60;99.90;;;;;;5027313;28;20040;-72
2022/09/15 03:46:28;;;;;;;2.67;0.70;;;15.50;99.90;;;;;;5028749;28;20459;-71
2022/09/15 03:48:54;;;;;;;3.22;0.90;;;15.50;99.90;;;;;;5028377;28;20083;-72
2022/09/15 03:51:20;;;;;;;2.50;0.52;;;15.50;99.90;;;;;;5028671;28;20049;-71
2022/09/15 03:53:46;;;;;;;9.30;1.23;;;15.50;99.90;;;;;;5031904;28;20407;-71
2022/09/15 03:56:31;;;;;;;1.90;0.40;;;15.50;99.90;;;;;;5039148;28;20041;-72
2022/09/15 03:58:58;;;;;;;5.15;1.10;;;15.40;99.90;;;;;;5041522;28;20037;-73
2022/09/15 04:01:24;;;;;;;1.65;0.73;;;15.50;99.90;;;;;;5031771;28;20042;-72
2022/09/15 04:03:50;;;;;;;2.67;0.65;;;15.50;99.90;;;;;;5040819;28;20033;-70
2022/09/15 04:06:17;;;;;;;3.40;0.98;;;15.40;99.90;;;;;;5028029;28;20075;-72
2022/09/15 04:08:43;;;;;;;1.30;0.35;;;15.40;99.90;;;;;;5027917;28;20041;-72
2022/09/15 04:11:11;;;;;;;5.85;0.60;;;15.50;99.90;;;;;;5027673;28;20116;-72
2022/09/15 04:13:38;;;;;;;5.45;0.75;;;15.50;99.90;;;;;;5026841;28;20109;-71
2022/09/15 04:16:06;;;;;;;1.73;0.40;;;15.40;99.90;;;;;;5026479;28;20033;-69
2022/09/15 04:18:33;;;;;;;2.92;0.75;;;15.40;99.90;;;;;;5027950;28;20145;-71
2022/09/15 04:20:59;;;;;;;4.93;0.50;;;15.50;99.90;;;;;;5026910;28;20095;-71
2022/09/15 04:23:25;;;;;;;2.65;0.95;;;15.40;99.90;;;;;;5027354;28;20041;-71
2022/09/15 04:25:59;;;;;;;5.15;0.50;;;15.50;99.90;;;;;;5027230;28;20033;-71
2022/09/15 04:28:26;;;;;;;3.17;0.75;;;15.50;99.90;;;;;;5024100;28;20040;-72
2022/09/15 04:31:00;;;;;;;5.85;0.60;;;15.50;99.90;;;;;;5031150;28;20391;-70
2022/09/15 04:33:26;;;;;;;3.05;0.80;;;15.50;99.90;;;;;;5031007;28;20022;-71
2022/09/15 04:36:01;;;;;;;7.57;1.45;;;15.50;99.90;;;;;;5030657;28;20451;-71
2022/09/15 04:38:27;;;;;;;3.15;1.05;;;15.50;99.90;;;;;;5025836;28;20034;-71
2022/09/15 04:40:54;;;;;;;2.75;0.68;;;15.50;99.90;;;;;;5023760;28;20055;-71
2022/09/15 04:43:20;;;;;;;1.02;0.50;;;15.50;99.90;;;;;;5021249;28;20032;-70
2022/09/15 04:45:46;;;;;;;2.15;0.52;;;15.50;99.90;;;;;;5026721;28;20738;-72
2022/09/15 04:48:12;;;;;;;1.80;0.52;;;15.50;99.90;;;;;;5026994;28;20045;-72
2022/09/15 04:50:39;;;;;;;4.75;0.60;;;15.50;99.90;;;;;;5026716;28;20033;-72
2022/09/15 04:53:05;;;;;;;3.85;0.60;;;15.50;99.90;;;;;;5025889;28;20556;-70
2022/09/15 04:55:32;;;;;;;2.05;0.40;;;15.50;99.90;;;;;;5027058;28;20068;-70
2022/09/15 04:57:58;;;;;;;6.18;1.10;;;15.50;99.90;;;;;;5026886;28;20033;-73
2022/09/15 05:00:25;;;;;;;2.70;0.50;;;15.50;99.90;;;;;;5027635;28;20516;-71
2022/09/15 05:02:50;;;;;;;3.20;0.60;;;15.40;99.90;;;;;;5011348;28;20038;-71
2022/09/15 05:05:16;;;;;;;5.25;0.80;;;15.40;99.90;;;;;;5020126;28;20540;-71
2022/09/15 05:07:42;;;;;;;3.67;0.60;;;15.40;99.90;;;;;;5013670;28;20089;-72
2022/09/15 05:10:07;;;;;;;3.90;0.63;;;15.40;99.90;;;;;;5018204;28;20038;-72
2022/09/15 05:12:33;;;;;;;3.10;0.70;;;15.40;99.90;;;;;;5019793;28;20041;-72
2022/09/15 05:14:59;;;;;;;7.10;1.80;;;15.30;99.90;;;;;;5025330;28;20045;-72
2022/09/15 05:17:24;;;;;;;5.22;0.57;;;15.30;99.90;;;;;;5023622;28;20083;-71
2022/09/15 05:19:50;;;;;;;4.30;1.10;;;15.30;99.90;;;;;;5019981;28;20111;-72
2022/09/15 05:22:15;;;;;;;4.32;0.50;;;15.20;99.90;;;;;;5013367;28;20390;-72
2022/09/15 05:24:41;;;;;;;6.25;1.02;;;15.30;99.90;;;;;;5018239;28;20547;-72
2022/09/15 05:27:07;;;;;;;5.13;0.60;;;15.20;99.90;;;;;;5018606;28;20393;-71
2022/09/15 05:29:32;;;;;;;2.97;0.90;;;15.30;99.90;;;;;;5015083;28;20116;-70
2022/09/15 05:31:58;;;;;;;3.92;0.50;;;15.30;99.90;;;;;;5031381;28;20030;-71
2022/09/15 05:34:23;;;;;;;2.90;0.80;;;15.30;99.90;;;;;;5030883;28;20361;-71
2022/09/15 05:36:49;;;;;;;4.28;0.65;;;15.30;99.90;;;;;;5024204;28;20037;-72
2022/09/15 05:39:14;;;;;;;5.38;0.80;;;15.30;99.90;;;;;;5016329;28;20044;-73
2022/09/15 05:41:40;;;;;;;1.45;0.50;;;15.30;99.90;;;;;;5021079;28;20053;-72
2022/09/15 05:44:06;;;;;;;4.93;0.55;;;15.30;99.90;;;;;;5019697;28;20461;-70
2022/09/15 05:46:31;;;;;;;3.17;0.60;;;15.30;99.90;;;;;;5019900;28;20121;-71
2022/09/15 05:48:57;;;;;;;4.13;1.15;;;15.40;99.90;;;;;;5018205;28;20033;-72
2022/09/15 05:51:24;;;;;;;3.65;0.60;;;15.30;99.90;;;;;;5018211;28;20096;-72
2022/09/15 05:53:49;;;;;;;0.90;0.32;;;15.40;99.90;;;;;;5014241;28;20103;-72
2022/09/15 05:56:16;;;;;;;3.97;0.60;;;15.40;99.90;;;;;;5014689;28;20045;-73
2022/09/15 05:58:44;;;;;;;13.20;2.65;;;15.40;99.90;;;;;;5017549;28;20042;-71
2022/09/15 06:01:18;;;;;;;3.78;0.38;;;15.40;99.90;;;;;;5015023;28;20065;-72
2022/09/15 06:03:45;;;;;;;7.05;1.00;;;15.40;99.90;;;;;;5012971;28;20038;-71
2022/09/15 06:06:11;;;;;;;4.13;0.73;;;15.40;99.90;;;;;;5019325;28;20045;-71
2022/09/15 06:08:47;;;;;;;3.97;1.35;;;15.40;99.90;;;;;;5019853;28;20029;-73
2022/09/15 06:11:16;;;;;;;4.00;0.77;;;15.50;99.90;;;;;;5021411;28;20413;-72
2022/09/15 06:13:42;;;;;;;4.30;0.60;;;15.50;99.90;;;;;;5017519;28;20045;-70
2022/09/15 06:16:10;;;;;;;5.15;0.63;;;15.60;99.90;;;;;;5020386;28;20121;-71
2022/09/15 06:18:38;;;;;;;4.28;0.70;;;15.60;99.90;;;;;;5019559;28;20049;-72
2022/09/15 06:21:15;;;;;;;4.40;0.70;;;15.60;99.90;;;;;;5010695;28;20123;-70
2022/09/15 06:23:41;;;;;;;4.57;0.65;;;15.70;99.90;;;;;;5013921;28;20037;-72
2022/09/15 06:26:15;;;;;;;4.13;0.75;;;15.70;99.90;;;;;;5019040;28;20057;-70
2022/09/15 06:28:45;;;;;;;1.85;0.30;;;15.70;99.90;;;;;;5023808;28;20044;-70
2022/09/15 06:31:11;;;;;;;;;;;15.70;99.90;;;;;;5021093;28;20037;-72
2022/09/15 06:33:42;;;;;;;2.90;0.52;;;15.70;99.90;;;;;;5020504;28;19920;-72
2022/09/15 06:36:10;;;;;;;3.95;0.65;;;15.70;99.90;;;;;;5011066;28;20038;-69
2022/09/15 06:38:36;;;;;;;12.38;1.45;;;15.70;99.90;;;;;;5015199;28;20045;-70
2022/09/15 06:41:02;;;;;;;3.83;0.52;;;15.80;99.90;;;;;;5016719;28;20494;-69
2022/09/15 06:43:30;;;;;;;5.40;0.65;;;15.80;99.90;;;;;;5016258;28;20034;-70
2022/09/15 06:46:13;;;;;;;3.55;0.70;;;15.80;99.90;;;;;;5022276;28;20029;-71
2022/09/15 06:48:39;;;;;;;3.90;1.27;;;15.90;99.90;;;;;;5017966;28;20053;-72
2022/09/15 06:51:07;;;;;;;5.63;0.70;;;15.90;99.90;;;;;;5019076;28;20133;-72
2022/09/15 06:53:35;;;;;;;1.95;0.50;;;15.90;99.90;;;;;;5019511;28;20034;-71
2022/09/15 06:56:14;;;;;;;4.90;0.47;;;16.00;99.90;;;;;;5015461;28;20039;-70
2022/09/15 06:58:41;;;;;;;2.17;0.60;;;16.00;99.90;;;;;;5023068;28;20046;-71
2022/09/15 07:01:11;;;;;;;3.72;0.50;;;16.10;99.90;;;;;;5021102;28;20095;-70
2022/09/15 07:03:38;;;;;;;3.17;0.50;;;16.20;99.90;;;;;;5025059;28;20038;-71
2022/09/15 07:06:05;;;;;;;3.92;0.57;;;16.20;99.90;;;;;;5027617;28;20071;-69
2022/09/15 07:08:30;;;;;;;3.10;0.50;;;16.30;99.90;;;;;;5032729;28;20050;-70
2022/09/15 07:10:56;;;;;;;6.20;1.52;;;16.40;99.90;;;;;;5028456;28;20120;-71
2022/09/15 07:13:22;;;;;;;5.72;0.85;;;16.50;99.90;;;;;;5022851;28;20112;-71
2022/09/15 07:15:53;;;;;;;6.95;0.50;;;16.60;99.90;;;;;;5019696;28;20061;-72
2022/09/15 07:18:19;;;;;;;2.30;0.45;;;16.60;99.90;;;;;;5019850;28;20040;-72
2022/09/15 07:20:44;;;;;;;4.60;0.32;;;16.60;99.90;;;;;;5018563;28;20045;-70
2022/09/15 07:23:10;;;;;;;4.03;0.80;;;16.60;99.90;;;;;;5017661;28;20038;-72
2022/09/15 07:25:36;;;;;;;4.05;0.50;;;16.60;99.90;;;;;;5018064;28;20060;-69
2022/09/15 07:28:02;;;;;;;8.20;0.55;;;16.50;99.90;;;;;;5020353;28;20025;-71
2022/09/15 07:30:28;;;;;;;0.82;0.25;;;16.60;99.90;;;;;;5022957;28;20042;-69
2022/09/15 07:32:54;;;;;;;2.58;0.43;;;16.60;99.90;;;;;;5022776;28;20036;-70
2022/09/15 07:35:20;;;;;;;4.88;0.93;;;16.60;99.90;;;;;;5023538;28;20413;-71
2022/09/15 07:37:47;;;;;;;3.47;0.35;;;16.60;99.90;;;;;;5019209;28;20029;-72
2022/09/15 07:40:13;;;;;;;6.95;0.35;;;16.60;99.90;;;;;;5024666;28;20087;-71
2022/09/15 07:42:43;;;;;;;3.92;0.25;;;16.70;99.90;;;;;;5028572;28;20029;-70
2022/09/15 07:45:10;;;;;;;5.28;0.85;;;16.70;99.90;;;;;;5029556;28;20091;-71
2022/09/15 07:47:36;;;;;;;3.03;0.22;;;16.70;99.90;;;;;;5024993;28;20052;-70
2022/09/15 07:50:06;;;;;;;4.43;0.70;;;16.70;99.90;;;;;;5025319;28;20041;-70
2022/09/15 07:52:32;;;;;;;6.30;0.40;;;16.80;99.90;;;;;;5021257;28;20391;-71
2022/09/15 07:54:57;;;;;;;1.15;0.30;;;16.70;99.90;;;;;;5022055;28;20045;-71
2022/09/15 07:57:23;;;;;;;2.67;0.30;;;16.80;99.90;;;;;;5019726;28;20028;-72
2022/09/15 07:59:49;;;;;;;3.13;0.40;;;16.80;99.90;;;;;;5018558;28;20033;-72
2022/09/15 08:02:19;;;;;;;5.47;0.50;;;16.90;99.90;;;;;;5016517;28;20144;-73
2022/09/15 08:04:44;;;;;;;;;;;16.90;99.90;;;;;;5019994;28;20470;-70
2022/09/15 08:07:11;;;;;;;1.17;0.10;;;16.90;99.90;;;;;;5022491;28;19969;-68
2022/09/15 08:09:38;;;;;;;4.35;0.70;;;16.90;99.90;;;;;;5019808;28;20043;-71
2022/09/15 08:12:05;;;;;;;4.40;0.30;;;17.00;99.90;;;;;;5018184;28;20030;-72
2022/09/15 08:14:31;;;;;;;4.85;0.70;;;17.00;99.90;;;;;;5020623;28;20116;-72
2022/09/15 08:17:03;;;;;;;9.52;0.68;;;17.10;99.90;;;;;;5022159;28;20568;-72
2022/09/15 08:19:30;;;;;;;5.00;0.35;;;17.20;99.90;;;;;;5022564;28;20037;-72
2022/09/15 08:21:56;;;;;;;3.17;0.40;;;17.20;99.90;;;;;;5020078;28;20391;-69
2022/09/15 08:24:22;;;;;;;8.55;0.60;;;17.30;99.90;;;;;;5018800;28;20033;-72
2022/09/15 08:26:49;;;;;;;1.83;0.55;;;17.30;99.90;;;;;;5015886;28;20089;-71
2022/09/15 08:29:16;;;;;;;2.25;0.20;;;17.20;99.90;;;;;;5020865;28;20114;-72
2022/09/15 08:31:43;;;;;;;7.13;0.63;;;17.20;99.90;;;;;;5020162;28;20088;-70
2022/09/15 08:34:11;;;;;;;4.55;0.52;;;17.00;99.90;;;;;;5018784;28;20026;-72
2022/09/15 08:36:36;;;;;;;2.63;0.35;;;16.90;99.90;;;;;;5021736;28;20125;-71
2022/09/15 08:39:03;;;;;;;4.57;0.43;;;16.70;99.90;;;;;;5030932;28;20058;-72
2022/09/15 08:41:33;;;;;;;5.78;0.90;;;16.70;99.90;;;;;;5030507;28;20049;-70
2022/09/15 08:44:11;;;;;;;;;;;16.60;99.90;;;;;;5017507;28;20055;-70
2022/09/15 08:46:46;;;;;;;3.75;0.55;;;16.60;99.90;;;;;;5020007;28;19917;-72
2022/09/15 08:49:26;;;;;;;2.78;0.30;;;16.60;99.90;;;;;;5017783;28;20040;-70
2022/09/15 08:51:52;;;;;;;3.75;0.40;;;16.60;99.90;;;;;;5017433;28;20041;-71
2022/09/15 08:54:25;;;;;;;3.70;0.30;;;16.70;99.90;;;;;;5018356;28;20037;-71
2022/09/15 08:56:51;;;;;;;1.08;0.30;;;16.70;99.90;;;;;;5026915;28;20041;-72
2022/09/15 08:59:18;;;;;;;1.70;0.13;;;16.80;99.90;;;;;;5027313;28;20045;-72
2022/09/15 09:02:11;;;;;;;4.82;0.17;;;16.90;99.90;;;;;;5022422;28;20561;-72
2022/09/15 09:04:40;;;;;;;4.15;0.40;;;17.10;99.90;;;;;;5014790;28;20040;-72
2022/09/15 09:07:12;;;;;;;3.28;0.95;;;17.20;99.90;;;;;;5014976;28;20050;-70
2022/09/15 09:09:46;;;;;;;3.28;0.25;;;17.30;99.90;;;;;;5015809;28;20038;-72
2022/09/15 09:12:11;;;;;;;5.53;0.65;;;17.40;99.90;;;;;;5015799;28;20575;-71
2022/09/15 09:15:14;;;;;;;1.77;0.20;;;17.40;99.90;;;;;;5019374;28;20042;-72
2022/09/15 09:17:59;;;;;;;3.53;0.20;;;17.60;99.90;;;;;;5015840;28;20535;-72
2022/09/15 09:20:46;;;;;;;2.30;0.30;;;17.80;99.90;;;;;;5024028;28;20096;-72
2022/09/15 09:23:16;;;;;;;2.58;0.20;;;17.80;99.90;;;;;;5019442;28;20064;-71
2022/09/15 09:25:43;;;;;;;2.00;0.28;;;17.90;99.90;;;;;;5023386;28;20096;-70
2022/09/15 09:28:44;;;;;;;3.15;0.40;;;17.90;99.90;;;;;;5023129;28;20067;-72
2022/09/15 09:31:17;;;;;;;1.52;0.20;;;18.00;99.90;;;;;;5009947;28;20357;-72
2022/09/15 09:33:51;;;;;;;2.08;0.30;;;18.10;99.90;;;;;;5013154;28;20699;-71
2022/09/15 09:36:16;;;;;;;3.45;0.32;;;18.00;99.90;;;;;;5011391;28;20037;-72
2022/09/15 09:38:45;;;;;;;1.90;0.10;;;18.00;99.90;;;;;;5016413;28;20048;-68
2022/09/15 09:41:18;;;;;;;5.10;0.30;;;18.10;99.90;;;;;;5022324;28;20099;-69
2022/09/15 09:43:46;;;;;;;1.70;0.10;;;18.20;99.90;;;;;;5008678;28;20042;-72
2022/09/15 09:46:18;;;;;;;3.33;0.20;;;18.20;99.90;;;;;;5013485;28;20118;-69
2022/09/15 09:49:05;;;;;;;1.55;0.20;;;18.20;99.90;;;;;;5019484;28;20052;-73
2022/09/15 09:51:46;;;;;;;1.55;0.10;;;18.30;99.90;;;;;;5015584;28;20052;-71
2022/09/15 09:54:16;;;;;;;3.80;0.22;;;18.50;99.90;;;;;;5014533;28;20033;-73
2022/09/15 09:56:43;;;;;;;1.00;0.10;;;18.50;99.90;;;;;;5013516;28;20037;-70
2022/09/15 09:59:33;;;;;;;4.57;0.30;;;18.60;99.90;;;;;;5013545;28;20510;-72
2022/09/15 10:02:11;;;;;;;5.35;0.85;;;18.80;99.90;;;;;;5017237;28;20441;-73
2022/09/15 10:04:38;;;;;;;0.20;0.10;;;18.80;99.90;;;;;;5011938;28;20079;-70
2022/09/15 10:07:04;;;;;;;2.38;0.10;;;19.10;99.90;;;;;;5018707;28;20493;-71
2022/09/15 10:09:30;;;;;;;1.73;0.10;;;19.10;99.90;;;;;;5017142;28;20033;-70
2022/09/15 10:11:59;;;;;;;2.05;0.17;;;19.20;99.90;;;;;;5022487;28;20040;-72
2022/09/15 10:14:37;;;;;;;2.83;0.65;;;19.30;99.90;;;;;;5019239;28;20040;-71
2022/09/15 10:17:21;;;;;;;1.48;0.15;;;19.30;99.90;;;;;;5019352;28;20119;-71
2022/09/15 10:19:54;;;;;;;6.90;0.75;;;19.40;99.90;;;;;;5013047;28;20038;-71
2022/09/15 10:22:36;;;;;;;1.45;0.75;;;19.50;99.70;;;;;;5019063;28;20080;-72
2022/09/15 10:25:19;;;;;;;3.33;0.30;;;19.50;99.50;;;;;;5009689;28;20079;-72
2022/09/15 10:28:00;;;;;;;3.72;0.65;;;19.60;98.80;;;;;;5014709;28;20068;-70
2022/09/15 10:30:26;;;;;;;0.73;0.20;;;19.70;99.00;;;;;;5012556;28;20144;-70
2022/09/15 10:32:52;;;;;;;0.90;0.20;;;19.80;98.90;;;;;;5012335;28;20047;-71
2022/09/15 10:35:19;;;;;;;2.33;0.25;;;19.90;98.50;;;;;;5013531;28;20026;-72
2022/09/15 10:37:50;;;;;;;3.05;0.75;;;19.90;98.40;;;;;;5015910;28;20081;-72
2022/09/15 10:40:30;;;;;;;2.60;0.17;;;19.90;98.80;;;;;;5014123;28;20505;-71
2022/09/15 10:43:04;;;;;;;3.00;0.40;;;20.00;97.60;;;;;;5013388;28;20124;-72
2022/09/15 10:45:37;;;;;;;1.95;0.30;;;19.90;96.30;;;;;;5017405;28;20124;-72
2022/09/15 10:48:35;;;;;;;2.72;0.60;;;19.90;97.10;;;;;;5013619;28;20026;-70
2022/09/15 10:51:21;;;;;;;0.55;0.08;;;19.90;95.90;;;;;;5014018;28;20045;-70
2022/09/15 10:53:55;;;;;;;4.22;0.40;;;19.80;96.00;;;;;;5012377;28;20038;-73
2022/09/15 10:56:30;;;;;;;4.10;0.55;;;19.90;95.50;;;;;;5017448;28;20051;-71
2022/09/15 10:59:21;;;;;;;5.30;0.30;;;19.90;96.40;;;;;;5015102;28;20618;-73
2022/09/15 11:02:01;;;;;;;2.63;0.30;;;19.80;96.00;;;;;;5013029;28;20080;-72
2022/09/15 11:04:53;;;;;;;4.32;0.30;;;19.80;95.00;;;;;;5016342;28;20038;-72
2022/09/15 11:07:38;;;;;;;1.27;0.20;;;19.70;95.50;;;;;;5017333;28;20052;-72
2022/09/15 11:10:15;;;;;;;3.20;0.22;;;19.50;95.90;;;;;;5020298;28;20041;-72
2022/09/15 11:12:47;;;;;;;4.00;0.50;;;19.40;96.10;;;;;;5019371;28;20038;-71
2022/09/15 11:15:32;;;;;;;4.43;0.82;;;19.50;96.40;;;;;;5019929;28;20041;-70
2022/09/15 11:18:10;;;;;;;1.00;0.28;;;19.60;94.80;;;;;;5016516;28;20044;-74
2022/09/15 11:20:55;;;;;;;2.10;0.20;;;19.70;94.70;;;;;;5016437;28;20080;-71
2022/09/15 11:23:27;;;;;;;3.63;0.20;;;20.00;94.80;;;;;;5019248;28;20048;-72
2022/09/15 11:25:59;;;;;;;3.40;0.52;;;20.00;94.30;;;;;;5021173;28;20038;-72
2022/09/15 11:28:43;;;;;;;1.95;0.30;;;20.10;94.60;;;;;;5018743;28;20038;-70
2022/09/15 11:31:25;;;;;;;1.98;0.28;;;20.40;94.30;;;;;;5016515;28;20568;-72
2022/09/15 11:34:01;;;;;;;1.88;0.20;;;20.60;92.80;;;;;;5018991;28;20076;-72
2022/09/15 11:36:42;;;;;;;1.42;0.15;;;20.60;92.30;;;;;;5018234;28;20096;-72
2022/09/15 11:39:24;;;;;;;1.15;0.52;;;20.50;92.60;;;;;;5015298;28;20140;-72
2022/09/15 11:42:06;;;;;;;2.90;0.10;;;20.50;91.50;;;;;;5024431;28;20045;-72
2022/09/15 11:44:35;;;;;;;2.30;0.22;;;20.50;90.50;;;;;;5027765;28;20044;-72
2022/09/15 11:47:03;;;;;;;4.05;0.35;;;20.40;91.00;;;;;;5022105;28;20037;-71
2022/09/15 11:49:38;;;;;;;0.98;0.20;;;20.40;91.30;;;;;;5019638;28;20111;-71
2022/09/15 11:52:28;;;;;;;1.15;0.20;;;20.30;92.00;;;;;;5022446;28;20042;-72
2022/09/15 11:55:01;;;;;;;1.02;0.10;;;20.20;92.00;;;;;;5016973;28;20070;-71
2022/09/15 11:57:37;;;;;;;2.40;0.30;;;20.00;92.50;;;;;;5020335;28;20060;-72
2022/09/15 12:00:06;;;;;;;4.68;0.90;;;19.80;92.50;;;;;;5017026;28;20414;-71
2022/09/15 12:02:51;;;;;;;2.13;0.25;;;19.80;91.70;;;;;;5018372;28;20034;-71
2022/09/15 12:05:25;;;;;;;10.90;0.35;;;19.80;93.20;;;;;;5019079;28;20045;-72
2022/09/15 12:08:08;;;;;;;0.98;0.20;;;19.90;92.80;;;;;;5020209;28;20044;-72
2022/09/15 12:10:42;;;;;;;0.73;0.20;;;19.90;92.70;;;;;;5016053;28;20045;-70
2022/09/15 12:13:17;;;;;;;1.95;0.10;;;19.90;91.90;;;;;;5016617;28;20068;-71
2022/09/15 12:15:44;;;;;;;3.53;0.28;;;19.80;92.10;;;;;;5019509;28;20037;-71
2022/09/15 12:18:21;;;;;;;0.88;0.17;;;19.70;92.20;;;;;;5018020;28;20041;-72
2022/09/15 12:20:59;;;;;;;4.40;0.30;;;19.70;93.00;;;;;;5017041;28;20055;-71
2022/09/15 12:23:32;;;;;;;1.67;0.30;;;20.00;92.50;;;;;;5019978;28;20033;-72
2022/09/15 12:26:22;;;;;;;0.15;0.00;;;20.10;92.40;;;;;;5019455;28;20040;-71
2022/09/15 12:29:02;;;;;;;3.78;0.35;;;20.10;92.40;;;;;;5019398;28;20069;-71
2022/09/15 12:31:39;;;;;;;3.88;0.20;;;20.20;92.00;;;;;;5020163;28;20034;-72
2022/09/15 12:34:27;;;;;;;2.13;0.65;;;20.10;91.90;;;;;;5018940;28;20048;-72
2022/09/15 12:36:54;;;;;;;3.63;0.30;;;20.10;92.00;;;;;;5025897;28;20084;-71
2022/09/15 12:39:26;;;;;;;4.75;0.22;;;19.90;92.40;;;;;;5027575;28;20037;-71
2022/09/15 12:42:12;;;;;;;3.50;0.28;;;19.80;94.50;;;;;;5021811;28;20587;-72
2022/09/15 12:44:43;;;;;;;2.95;0.20;;;19.70;95.40;;;;;;5017882;28;20069;-71
2022/09/15 12:47:47;;;;;;;2.17;0.10;;;19.70;95.80;;;;;;5018921;28;20037;-71
2022/09/15 12:50:13;;;;;;;2.65;0.30;;;19.50;96.00;;;;;;5006383;28;20035;-71
2022/09/15 12:52:52;;;;;;;1.65;0.55;;;19.40;96.00;;;;;;5023560;28;20555;-70
2022/09/15 12:55:24;;;;;;;2.92;0.82;;;19.40;96.60;;;;;;5022551;28;20045;-72
2022/09/15 12:57:56;;;;;;;1.95;0.10;;;19.20;96.40;;;;;;5026493;28;20040;-72
2022/09/15 13:00:26;;;;;;;1.27;0.20;;;19.00;96.90;;;;;;5022580;28;20037;-72
2022/09/15 13:02:52;;;;;;;2.88;0.28;;;18.80;97.60;;;;;;5015658;28;20062;-72
2022/09/15 13:05:44;;;;;;;3.92;0.20;;;18.50;98.30;;;;;;5017279;28;20538;-70
2022/09/15 13:08:23;;;;;;;2.78;0.30;;;18.40;98.20;;;;;;5019719;28;20041;-72
2022/09/15 13:11:09;;;;;;;5.32;0.50;;;18.30;99.30;;;;;;5019829;28;20041;-72